createdAt,value
2018-08-20T00:00:21.197Z,74.01
2018-08-20T00:01:21.174Z,74.36
2018-08-20T00:02:21.180Z,74.78
2018-08-20T00:03:21.428Z,75.13
2018-08-20T00:04:21.444Z,74.65
2018-08-20T00:05:21.171Z,74.65
2018-08-20T00:06:21.430Z,74.65
2018-08-20T00:07:21.482Z,74.49
2018-08-20T00:08:21.196Z,75.51
2018-08-20T00:09:21.442Z,75.03
2018-08-20T00:10:21.193Z,75.42
2018-08-20T00:11:21.437Z,75.23
2018-08-20T00:12:21.443Z,74.84
2018-08-20T00:13:21.461Z,74.93
2018-08-20T00:14:21.201Z,74.84
2018-08-20T00:15:21.210Z,74.93
2018-08-20T00:16:21.211Z,74.93
2018-08-20T00:17:21.207Z,75.42
2018-08-20T00:18:21.453Z,76.18
2018-08-20T00:19:21.213Z,75.61
2018-08-20T00:20:21.458Z,75.03
2018-08-20T00:21:21.214Z,75.32
2018-08-20T00:22:21.476Z,75.51
2018-08-20T00:23:21.463Z,75.32
2018-08-20T00:24:21.471Z,75.61
2018-08-20T00:25:21.467Z,75.32
2018-08-20T00:26:21.484Z,75.51
2018-08-20T00:27:21.217Z,75.23
2018-08-20T00:28:21.491Z,75.23
2018-08-20T00:29:21.485Z,75.61
2018-08-20T00:30:21.524Z,75.71
2018-08-20T00:31:21.486Z,75.51
2018-08-20T00:32:21.487Z,75.76
2018-08-20T00:33:21.228Z,75.28
2018-08-20T00:34:21.236Z,75.67
2018-08-20T00:35:21.230Z,75.28
2018-08-20T00:36:21.504Z,75.48
2018-08-20T00:37:21.493Z,75.86
2018-08-20T00:38:21.499Z,76.44
2018-08-20T00:39:21.494Z,75.96
2018-08-20T00:40:21.319Z,76.15
2018-08-20T00:41:21.513Z,76.44
2018-08-20T00:42:21.498Z,76.73
2018-08-20T00:43:21.507Z,76.44
2018-08-20T00:44:21.269Z,76.09
2018-08-20T00:45:21.508Z,76.06
2018-08-20T00:46:21.519Z,75.96
2018-08-20T00:47:21.515Z,76.34
2018-08-20T00:48:21.261Z,75.86
2018-08-20T00:49:21.517Z,75.67
2018-08-20T00:50:21.551Z,76.06
2018-08-20T00:51:21.522Z,76.06
2018-08-20T00:52:21.281Z,75.86
2018-08-20T00:53:21.265Z,76.06
2018-08-20T00:54:21.268Z,76.53
2018-08-20T00:55:21.595Z,76.53
2018-08-20T00:56:21.530Z,76.25
2018-08-20T00:57:21.278Z,76.06
2018-08-20T00:58:21.533Z,76.15
2018-08-20T00:59:21.283Z,76.15
2018-08-20T01:00:21.370Z,76.06
2018-08-20T01:01:21.286Z,76.25
2018-08-20T01:02:21.551Z,76.15
2018-08-20T01:03:21.553Z,77.31
2018-08-20T01:04:21.288Z,77.4
2018-08-20T01:05:21.633Z,77.69
2018-08-20T01:06:21.548Z,77.69
2018-08-20T01:07:21.288Z,77.56
2018-08-20T01:08:21.547Z,77.65
2018-08-20T01:09:21.553Z,77.56
2018-08-20T01:10:21.549Z,77.65
2018-08-20T01:11:21.293Z,77.75
2018-08-20T01:12:21.297Z,78.33
2018-08-20T01:13:21.555Z,77.84
2018-08-20T01:14:21.300Z,77.59
2018-08-20T01:15:21.552Z,77.59
2018-08-20T01:16:21.303Z,77.78
2018-08-20T01:17:21.563Z,78.36
2018-08-20T01:18:21.346Z,77.78
2018-08-20T01:19:21.315Z,77.94
2018-08-20T01:20:21.350Z,77.84
2018-08-20T01:21:21.561Z,78.03
2018-08-20T01:22:21.328Z,77.46
2018-08-20T01:23:21.325Z,77.75
2018-08-20T01:24:21.590Z,77.84
2018-08-20T01:25:21.584Z,78.03
2018-08-20T01:26:21.579Z,77.84
2018-08-20T01:27:21.325Z,78.52
2018-08-20T01:28:21.589Z,78.42
2018-08-20T01:29:21.327Z,78.52
2018-08-20T01:30:21.580Z,79.1
2018-08-20T01:31:21.347Z,78.33
2018-08-20T01:32:21.331Z,78.23
2018-08-20T01:33:21.358Z,78.33
2018-08-20T01:34:21.404Z,78.52
2018-08-20T01:35:21.586Z,78.42
2018-08-20T01:36:21.586Z,78.33
2018-08-20T01:37:21.594Z,78.81
2018-08-20T01:38:21.589Z,79
2018-08-20T01:39:21.607Z,79.38
2018-08-20T01:40:21.348Z,78.9
2018-08-20T01:41:21.345Z,79.19
2018-08-20T01:42:21.352Z,79.86
2018-08-20T01:43:21.600Z,80.35
2018-08-20T01:44:21.621Z,80.44
2018-08-20T01:45:21.358Z,79.96
2018-08-20T01:46:21.619Z,80.92
2018-08-20T01:47:21.608Z,80.83
2018-08-20T01:48:21.359Z,80.92
2018-08-20T01:49:21.619Z,81.02
2018-08-20T01:50:21.630Z,80.73
2018-08-20T01:51:21.616Z,80.44
2018-08-20T01:52:21.613Z,80.54
2018-08-20T01:53:21.611Z,81.12
2018-08-20T01:54:21.615Z,80.73
2018-08-20T01:55:21.654Z,81.21
2018-08-20T01:56:21.621Z,81.12
2018-08-20T01:57:21.635Z,80.83
2018-08-20T01:58:21.625Z,81.02
2018-08-20T01:59:21.367Z,80.83
2018-08-20T02:00:21.628Z,80.25
2018-08-20T02:01:21.624Z,80.35
2018-08-20T02:02:21.635Z,80.35
2018-08-20T02:03:21.392Z,81.12
2018-08-20T02:04:21.655Z,81.02
2018-08-20T02:05:21.711Z,80.92
2018-08-20T02:06:21.630Z,81.02
2018-08-20T02:07:21.638Z,80.83
2018-08-20T02:08:21.383Z,81.02
2018-08-20T02:09:21.377Z,80.83
2018-08-20T02:10:21.635Z,81.21
2018-08-20T02:11:21.383Z,81.4
2018-08-20T02:12:21.642Z,80.92
2018-08-20T02:13:21.385Z,80.73
2018-08-20T02:14:21.643Z,80.98
2018-08-20T02:15:21.404Z,81.21
2018-08-20T02:16:21.638Z,81.4
2018-08-20T02:17:21.658Z,81.4
2018-08-20T02:18:21.643Z,81.6
2018-08-20T02:19:21.397Z,81.5
2018-08-20T02:20:21.672Z,81.3
2018-08-20T02:21:21.646Z,81.65
2018-08-20T02:22:21.655Z,81.27
2018-08-20T02:23:21.651Z,81.84
2018-08-20T02:24:21.657Z,81.5
2018-08-20T02:25:21.393Z,82.17
2018-08-20T02:26:21.659Z,81.79
2018-08-20T02:27:21.651Z,81.79
2018-08-20T02:28:21.662Z,81.12
2018-08-20T02:29:21.661Z,81.12
2018-08-20T02:30:21.673Z,81.02
2018-08-20T02:31:21.669Z,80.92
2018-08-20T02:32:21.666Z,80.83
2018-08-20T02:33:21.406Z,80.83
2018-08-20T02:34:21.663Z,80.54
2018-08-20T02:35:21.521Z,80.54
2018-08-20T02:36:21.683Z,80.73
2018-08-20T02:37:21.413Z,81.02
2018-08-20T02:38:21.681Z,81.07
2018-08-20T02:39:21.676Z,81.46
2018-08-20T02:40:21.423Z,81.65
2018-08-20T02:41:21.671Z,81.94
2018-08-20T02:42:21.678Z,81.75
2018-08-20T02:43:21.686Z,81.94
2018-08-20T02:44:21.427Z,82.14
2018-08-20T02:45:21.536Z,82.61
2018-08-20T02:46:21.705Z,82.81
2018-08-20T02:47:21.681Z,83.19
2018-08-20T02:48:21.686Z,83.29
2018-08-20T02:49:21.431Z,83.96
2018-08-20T02:50:21.742Z,83.29
2018-08-20T02:51:21.694Z,83.09
2018-08-20T02:52:21.693Z,83.29
2018-08-20T02:53:21.702Z,83
2018-08-20T02:54:21.435Z,83.19
2018-08-20T02:55:21.694Z,83.48
2018-08-20T02:56:21.701Z,83.23
2018-08-20T02:57:21.693Z,83.42
2018-08-20T02:58:21.698Z,83.42
2018-08-20T02:59:21.452Z,83.14
2018-08-20T03:00:21.492Z,83.04
2018-08-20T03:01:21.701Z,83.14
2018-08-20T03:02:21.711Z,83.23
2018-08-20T03:03:21.449Z,83.33
2018-08-20T03:04:21.701Z,83.42
2018-08-20T03:05:21.441Z,83.62
2018-08-20T03:06:21.704Z,83.23
2018-08-20T03:07:21.703Z,83.33
2018-08-20T03:08:21.708Z,83.14
2018-08-20T03:09:21.754Z,83.42
2018-08-20T03:10:21.709Z,83.42
2018-08-20T03:11:21.708Z,83.62
2018-08-20T03:12:21.711Z,84.1
2018-08-20T03:13:21.455Z,83.81
2018-08-20T03:14:21.826Z,83.23
2018-08-20T03:15:21.457Z,83.91
2018-08-20T03:16:21.470Z,83.42
2018-08-20T03:17:21.776Z,83.04
2018-08-20T03:18:21.459Z,84
2018-08-20T03:19:21.715Z,83.52
2018-08-20T03:20:21.507Z,83.81
2018-08-20T03:21:21.715Z,83.72
2018-08-20T03:22:21.719Z,84
2018-08-20T03:23:21.727Z,84.48
2018-08-20T03:24:21.731Z,84
2018-08-20T03:25:21.789Z,84.67
2018-08-20T03:26:21.472Z,85.06
2018-08-20T03:27:21.726Z,85.02
2018-08-20T03:28:21.475Z,84.63
2018-08-20T03:29:21.730Z,84.48
2018-08-20T03:30:21.745Z,84.67
2018-08-20T03:31:21.491Z,84.67
2018-08-20T03:32:21.486Z,84.87
2018-08-20T03:33:21.830Z,85.06
2018-08-20T03:34:21.480Z,85.78
2018-08-20T03:35:21.735Z,85.4
2018-08-20T03:36:21.488Z,85.78
2018-08-20T03:37:21.744Z,85.4
2018-08-20T03:38:21.746Z,85.5
2018-08-20T03:39:21.482Z,85.78
2018-08-20T03:40:21.787Z,85.6
2018-08-20T03:41:21.747Z,85.88
2018-08-20T03:42:21.495Z,85.31
2018-08-20T03:43:21.524Z,85.78
2018-08-20T03:44:21.746Z,85.69
2018-08-20T03:45:21.492Z,85.83
2018-08-20T03:46:21.755Z,85.4
2018-08-20T03:47:21.751Z,85.6
2018-08-20T03:48:21.770Z,86.27
2018-08-20T03:49:21.498Z,86.27
2018-08-20T03:50:21.750Z,85.6
2018-08-20T03:51:21.756Z,86.46
2018-08-20T03:52:21.497Z,85.69
2018-08-20T03:53:21.513Z,86.36
2018-08-20T03:54:21.753Z,86.27
2018-08-20T03:55:21.500Z,86.75
2018-08-20T03:56:21.505Z,86.94
2018-08-20T03:57:21.502Z,87.04
2018-08-20T03:58:21.770Z,86.94
2018-08-20T03:59:21.776Z,86.85
2018-08-20T04:00:21.777Z,86.85
2018-08-20T04:01:21.515Z,87.13
2018-08-20T04:02:23.374Z,86.85
2018-08-20T04:03:21.761Z,86.65
2018-08-20T04:04:21.764Z,86.75
2018-08-20T04:05:21.771Z,86.56
2018-08-20T04:06:21.773Z,86.75
2018-08-20T04:07:21.518Z,86.94
2018-08-20T04:08:21.509Z,86.46
2018-08-20T04:09:21.519Z,86.85
2018-08-20T04:10:21.791Z,86.36
2018-08-20T04:11:21.771Z,86.36
2018-08-20T04:12:21.776Z,86.65
2018-08-20T04:13:21.774Z,86.75
2018-08-20T04:14:21.774Z,86.94
2018-08-20T04:15:21.593Z,86.94
2018-08-20T04:16:21.518Z,87.71
2018-08-20T04:17:21.520Z,87.71
2018-08-20T04:18:21.781Z,87.62
2018-08-20T04:19:21.783Z,87.62
2018-08-20T04:20:21.840Z,87.04
2018-08-20T04:21:21.524Z,87.71
2018-08-20T04:22:21.528Z,87.62
2018-08-20T04:23:21.790Z,88.48
2018-08-20T04:24:21.555Z,87.71
2018-08-20T04:25:21.789Z,88.15
2018-08-20T04:26:21.791Z,87.96
2018-08-20T04:27:21.547Z,88.06
2018-08-20T04:28:21.832Z,87.76
2018-08-20T04:29:21.536Z,87.96
2018-08-20T04:30:21.809Z,87.96
2018-08-20T04:31:21.536Z,87.48
2018-08-20T04:32:21.787Z,86.99
2018-08-20T04:33:21.801Z,86.9
2018-08-20T04:34:21.798Z,86.85
2018-08-20T04:35:21.792Z,86.61
2018-08-20T04:36:21.881Z,86.61
2018-08-20T04:37:21.788Z,87.13
2018-08-20T04:38:21.815Z,87.23
2018-08-20T04:39:21.795Z,86.18
2018-08-20T04:40:21.798Z,86.08
2018-08-20T04:41:21.805Z,85.88
2018-08-20T04:42:21.876Z,85.98
2018-08-20T04:43:21.541Z,86.08
2018-08-20T04:44:21.805Z,86.36
2018-08-20T04:45:21.570Z,86.27
2018-08-20T04:46:21.582Z,86.18
2018-08-20T04:47:21.566Z,86.85
2018-08-20T04:48:21.831Z,86.85
2018-08-20T04:49:21.583Z,86.8
2018-08-20T04:50:21.862Z,86.8
2018-08-20T04:51:22.061Z,87.04
2018-08-20T04:52:21.557Z,86.75
2018-08-20T04:53:21.570Z,86.56
2018-08-20T04:54:21.812Z,85.88
2018-08-20T04:55:21.559Z,86.56
2018-08-20T04:56:21.830Z,85.98
2018-08-20T04:57:21.822Z,85.21
2018-08-20T04:58:21.815Z,84.67
2018-08-20T04:59:21.557Z,83.81
2018-08-20T05:00:21.816Z,82.5
2018-08-20T05:01:21.827Z,81.35
2018-08-20T05:02:21.567Z,80.43
2018-08-20T05:03:22.084Z,79.17
2018-08-20T05:04:21.852Z,78.92
2018-08-20T05:05:21.830Z,78.44
2018-08-20T05:06:21.574Z,78.15
2018-08-20T05:07:21.829Z,77.76
2018-08-20T05:08:21.840Z,78.25
2018-08-20T05:09:21.584Z,78.06
2018-08-20T05:10:21.909Z,78.25
2018-08-20T05:11:21.580Z,78.06
2018-08-20T05:12:21.584Z,77.86
2018-08-20T05:13:21.846Z,76.13
2018-08-20T05:14:21.932Z,75.4
2018-08-20T05:15:21.912Z,74.37
2018-08-20T05:16:21.601Z,72.83
2018-08-20T05:17:21.606Z,72.09
2018-08-20T05:18:21.657Z,72
2018-08-20T05:19:21.602Z,71.03
2018-08-20T05:20:21.870Z,70.58
2018-08-20T05:21:21.613Z,69.81
2018-08-20T05:22:21.871Z,70.2
2018-08-20T05:23:21.879Z,70.58
2018-08-20T05:24:21.875Z,71.16
2018-08-20T05:25:21.629Z,71.8
2018-08-20T05:26:21.888Z,71.9
2018-08-20T05:27:21.898Z,72.92
2018-08-20T05:28:21.893Z,73.31
2018-08-20T05:29:21.978Z,74.57
2018-08-20T05:30:21.708Z,75.3
2018-08-20T05:31:21.642Z,75.49
2018-08-20T05:32:21.945Z,75.97
2018-08-20T05:33:21.914Z,75.97
2018-08-20T05:34:21.678Z,76.07
2018-08-20T05:35:21.915Z,76.61
2018-08-20T05:36:21.933Z,76.75
2018-08-20T05:37:21.669Z,77.19
2018-08-20T05:38:21.688Z,77.09
2018-08-20T05:39:21.926Z,77.86
2018-08-20T05:40:21.925Z,78.06
2018-08-20T05:41:21.928Z,77.86
2018-08-20T05:42:21.935Z,77.76
2018-08-20T05:43:21.934Z,77.19
2018-08-20T05:44:21.675Z,75.68
2018-08-20T05:45:21.695Z,74.43
2018-08-20T05:46:21.949Z,72.83
2018-08-20T05:47:21.704Z,71.9
2018-08-20T05:48:21.690Z,71.06
2018-08-20T05:49:21.950Z,71.06
2018-08-20T05:50:21.951Z,71.06
2018-08-20T05:51:21.957Z,71.22
2018-08-20T05:52:21.753Z,71.8
2018-08-20T05:53:21.706Z,72.67
2018-08-20T05:54:21.715Z,72.48
2018-08-20T05:55:21.805Z,72.09
2018-08-20T05:56:21.715Z,72.28
2018-08-20T05:57:21.736Z,71.8
2018-08-20T05:58:21.989Z,70.39
2018-08-20T05:59:22.187Z,68.49
2018-08-20T06:00:21.803Z,67.08
2018-08-20T06:01:21.739Z,65.17
2018-08-20T06:02:21.993Z,63.69
2018-08-20T06:03:21.743Z,62.63
2018-08-20T06:04:22.012Z,60.82
2018-08-20T06:05:22.064Z,60.07
2018-08-20T06:06:21.753Z,59.23
2018-08-20T06:07:21.756Z,58.94
2018-08-20T06:08:22.031Z,59.16
2018-08-20T06:09:21.776Z,59.61
2018-08-20T06:10:21.780Z,60.27
2018-08-20T06:11:21.780Z,61.49
2018-08-20T06:12:21.778Z,61.69
2018-08-20T06:13:21.786Z,62.92
2018-08-20T06:14:21.790Z,63.18
2018-08-20T06:15:22.399Z,62.88
2018-08-20T06:16:22.062Z,63.01
2018-08-20T06:17:21.812Z,62.82
2018-08-20T06:18:21.806Z,62.04
2018-08-20T06:19:21.819Z,62.82
2018-08-20T06:20:21.815Z,63.49
2018-08-20T06:21:21.823Z,63.18
2018-08-20T06:22:21.844Z,62.53
2018-08-20T06:23:22.088Z,61.66
2018-08-20T06:24:21.841Z,60.52
2018-08-20T06:25:22.100Z,58.45
2018-08-20T06:26:22.102Z,57.7
2018-08-20T06:27:22.114Z,56.76
2018-08-20T06:28:21.855Z,55.6
2018-08-20T06:29:22.124Z,55.33
2018-08-20T06:30:22.139Z,54.75
2018-08-20T06:31:21.895Z,53.81
2018-08-20T06:32:21.875Z,53.61
2018-08-20T06:33:22.140Z,52.57
2018-08-20T06:34:21.889Z,51.62
2018-08-20T06:35:21.894Z,51.14
2018-08-20T06:36:22.163Z,50.68
2018-08-20T06:37:21.905Z,50.09
2018-08-20T06:38:21.909Z,49.44
2018-08-20T06:39:21.918Z,48.66
2018-08-20T06:40:22.183Z,48
2018-08-20T06:41:21.939Z,47.61
2018-08-20T06:42:21.944Z,46.76
2018-08-20T06:43:21.953Z,47.17
2018-08-20T06:44:22.229Z,46.88
2018-08-20T06:45:22.048Z,46.1
2018-08-20T06:46:21.966Z,45.81
2018-08-20T06:47:21.973Z,45.73
2018-08-20T06:48:21.977Z,45.46
2018-08-20T06:49:21.983Z,45.65
2018-08-20T06:50:22.260Z,45.05
2018-08-20T06:51:22.261Z,44.87
2018-08-20T06:52:22.009Z,43.99
2018-08-20T06:53:22.015Z,43.99
2018-08-20T06:54:22.308Z,43.51
2018-08-20T06:55:22.391Z,44.12
2018-08-20T06:56:22.042Z,43.33
2018-08-20T06:57:22.295Z,42.87
2018-08-20T06:58:22.051Z,42.68
2018-08-20T06:59:22.324Z,42.48
2018-08-20T07:00:22.152Z,41.7
2018-08-20T07:01:22.326Z,42.09
2018-08-20T07:02:22.079Z,42.19
2018-08-20T07:03:22.086Z,42.38
2018-08-20T07:04:22.108Z,42.09
2018-08-20T07:05:22.358Z,41.23
2018-08-20T07:06:22.193Z,41.23
2018-08-20T07:07:22.112Z,41.25
2018-08-20T07:08:22.389Z,40.27
2018-08-20T07:09:22.396Z,40.47
2018-08-20T07:10:22.398Z,40.27
2018-08-20T07:11:22.150Z,40.17
2018-08-20T07:12:22.153Z,40
2018-08-20T07:13:22.162Z,39.51
2018-08-20T07:14:22.429Z,39.61
2018-08-20T07:15:22.479Z,39.23
2018-08-20T07:16:22.444Z,39.43
2018-08-20T07:17:22.227Z,39.23
2018-08-20T07:18:22.203Z,39.53
2018-08-20T07:19:22.487Z,38.94
2018-08-20T07:20:22.304Z,38.55
2018-08-20T07:21:22.482Z,38.55
2018-08-20T07:22:22.492Z,39.33
2018-08-20T07:23:22.605Z,39.33
2018-08-20T07:24:22.249Z,38.86
2018-08-20T07:25:22.257Z,38.18
2018-08-20T07:26:22.520Z,37.71
2018-08-20T07:27:22.528Z,37.82
2018-08-20T07:28:22.538Z,37.82
2018-08-20T07:29:22.558Z,38.98
2018-08-20T07:30:22.352Z,37.88
2018-08-20T07:31:22.586Z,38.86
2018-08-20T07:32:22.316Z,39.51
2018-08-20T07:33:22.326Z,39.41
2018-08-20T07:34:22.596Z,40.47
2018-08-20T07:35:22.381Z,41.99
2018-08-20T07:36:22.620Z,43.41
2018-08-20T07:37:22.625Z,45.03
2018-08-20T07:38:22.365Z,46.95
2018-08-20T07:39:22.628Z,47.59
2018-08-20T07:40:22.481Z,48.25
2018-08-20T07:41:22.647Z,49.39
2018-08-20T07:42:22.454Z,50.16
2018-08-20T07:43:22.400Z,50.24
2018-08-20T07:44:22.399Z,49.68
2018-08-20T07:45:22.767Z,47.37
2018-08-20T07:46:22.687Z,46.05
2018-08-20T07:47:22.437Z,44.44
2018-08-20T07:48:22.428Z,42.44
2018-08-20T07:49:22.703Z,41.23
2018-08-20T07:50:22.716Z,39.88
2018-08-20T07:51:22.712Z,40
2018-08-20T07:52:22.482Z,39.9
2018-08-20T07:53:22.728Z,39.33
2018-08-20T07:54:22.473Z,38.67
2018-08-20T07:55:22.744Z,37.81
2018-08-20T07:56:22.501Z,37.63
2018-08-20T07:57:22.752Z,36.45
2018-08-20T07:58:22.551Z,36.76
2018-08-20T07:59:22.777Z,36.09
2018-08-20T08:00:22.772Z,34.74
2018-08-20T08:01:22.796Z,35.03
2018-08-20T08:02:22.546Z,36.51
2018-08-20T08:03:22.816Z,34.93
2018-08-20T08:04:22.808Z,34.75
2018-08-20T08:05:22.935Z,35.34
2018-08-20T08:06:22.567Z,34.85
2018-08-20T08:07:22.587Z,33.87
2018-08-20T08:08:22.586Z,33.79
2018-08-20T08:09:22.611Z,33.22
2018-08-20T08:10:22.681Z,32.92
2018-08-20T08:11:22.885Z,34.39
2018-08-20T08:12:22.876Z,35.28
2018-08-20T08:13:22.642Z,34.36
2018-08-20T08:14:22.631Z,35.05
2018-08-20T08:15:22.966Z,35.31
2018-08-20T08:16:22.924Z,36.76
2018-08-20T08:17:22.675Z,37.02
2018-08-20T08:18:22.942Z,38.1
2018-08-20T08:19:22.939Z,38.08
2018-08-20T08:20:22.702Z,37.69
2018-08-20T08:21:22.964Z,37.39
2018-08-20T08:22:22.969Z,37.69
2018-08-20T08:23:22.732Z,37.49
2018-08-20T08:24:22.985Z,38.45
2018-08-20T08:25:23.076Z,38.73
2018-08-20T08:26:22.772Z,39.31
2018-08-20T08:27:23.001Z,38.14
2018-08-20T08:28:23.009Z,37.49
2018-08-20T08:29:23.028Z,37.59
2018-08-20T08:30:22.776Z,37.13
2018-08-20T08:31:23.032Z,37.56
2018-08-20T08:32:23.044Z,37.48
2018-08-20T08:33:23.055Z,34.05
2018-08-20T08:34:24.109Z,33.97
2018-08-20T08:35:22.824Z,34.34
2018-08-20T08:36:23.074Z,34.92
2018-08-20T08:37:22.833Z,35.7
2018-08-20T08:38:23.100Z,35.58
2018-08-20T08:39:23.104Z,36.55
2018-08-20T08:40:23.182Z,37.29
2018-08-20T08:41:22.862Z,37.96
2018-08-20T08:42:23.130Z,38.92
2018-08-20T08:43:23.140Z,39.59
2018-08-20T08:44:22.893Z,41.11
2018-08-20T08:45:23.220Z,41.97
2018-08-20T08:46:23.162Z,43.51
2018-08-20T08:47:23.167Z,43.37
2018-08-20T08:48:23.180Z,45.61
2018-08-20T08:49:23.186Z,46.88
2018-08-20T08:50:23.222Z,45.22
2018-08-20T08:51:23.197Z,45.03
2018-08-20T08:52:22.962Z,44.05
2018-08-20T08:53:23.230Z,44.34
2018-08-20T08:54:23.232Z,46.66
2018-08-20T08:55:23.246Z,45.88
2018-08-20T08:56:23.243Z,46.54
2018-08-20T08:57:23.245Z,47.49
2018-08-20T08:58:23.004Z,47.47
2018-08-20T08:59:23.260Z,48.34
2018-08-20T09:00:23.332Z,48.9
2018-08-20T09:01:23.277Z,48.71
2018-08-20T09:02:23.278Z,49.56
2018-08-20T09:03:23.043Z,49.56
2018-08-20T09:04:25.045Z,50.24
2018-08-20T09:05:23.051Z,50.24
2018-08-20T09:06:23.302Z,50.14
2018-08-20T09:07:23.058Z,50.24
2018-08-20T09:08:23.316Z,50.53
2018-08-20T09:09:23.318Z,50.14
2018-08-20T09:10:23.327Z,51.7
2018-08-20T09:11:23.330Z,49.58
2018-08-20T09:12:23.347Z,48.9
2018-08-20T09:13:23.348Z,49.51
2018-08-20T09:14:23.351Z,48.44
2018-08-20T09:15:23.414Z,47.39
2018-08-20T09:16:23.375Z,47.49
2018-08-20T09:17:23.112Z,47.96
2018-08-20T09:18:23.373Z,48.83
2018-08-20T09:19:23.128Z,48.93
2018-08-20T09:20:23.381Z,48.25
2018-08-20T09:21:23.133Z,48.63
2018-08-20T09:22:23.400Z,48.54
2018-08-20T09:23:23.403Z,49.02
2018-08-20T09:24:23.170Z,49.02
2018-08-20T09:25:23.410Z,49.61
2018-08-20T09:26:23.420Z,49.39
2018-08-20T09:27:23.419Z,49.87
2018-08-20T09:28:23.456Z,50.16
2018-08-20T09:29:23.437Z,50.07
2018-08-20T09:30:23.443Z,50.07
2018-08-20T09:31:23.460Z,50.16
2018-08-20T09:32:23.625Z,50.36
2018-08-20T09:33:23.456Z,50.26
2018-08-20T09:34:23.467Z,50.26
2018-08-20T09:35:23.491Z,50.65
2018-08-20T09:36:23.479Z,50.26
2018-08-20T09:37:23.493Z,50.26
2018-08-20T09:38:23.637Z,50.73
2018-08-20T09:39:23.498Z,51.23
2018-08-20T09:40:23.490Z,49.68
2018-08-20T09:41:23.494Z,49.41
2018-08-20T09:42:23.523Z,48.93
2018-08-20T09:43:23.514Z,49.32
2018-08-20T09:44:23.528Z,49.8
2018-08-20T09:45:23.526Z,48.07
2018-08-20T09:46:23.261Z,48.27
2018-08-20T09:47:23.270Z,48.27
2018-08-20T09:48:23.539Z,48.36
2018-08-20T09:49:23.543Z,48.27
2018-08-20T09:50:23.664Z,47.61
2018-08-20T09:51:23.556Z,47.2
2018-08-20T09:52:23.545Z,47.69
2018-08-20T09:53:23.738Z,48.27
2018-08-20T09:54:23.577Z,48.63
2018-08-20T09:55:23.662Z,49
2018-08-20T09:56:23.316Z,48.8
2018-08-20T09:57:23.592Z,48.51
2018-08-20T09:58:23.607Z,48.71
2018-08-20T09:59:23.609Z,48.61
2018-08-20T10:00:23.641Z,48.71
2018-08-20T10:01:23.345Z,48.71
2018-08-20T10:02:23.604Z,48.9
2018-08-20T10:03:23.350Z,48.9
2018-08-20T10:04:23.633Z,48.22
2018-08-20T10:05:23.890Z,48.71
2018-08-20T10:06:23.374Z,48.03
2018-08-20T10:07:23.741Z,48.22
2018-08-20T10:08:23.642Z,48.34
2018-08-20T10:09:23.382Z,47.56
2018-08-20T10:10:23.450Z,46.32
2018-08-20T10:11:23.653Z,47.3
2018-08-20T10:12:23.655Z,47.08
2018-08-20T10:13:23.405Z,47.56
2018-08-20T10:14:23.672Z,47.17
2018-08-20T10:15:23.668Z,47.37
2018-08-20T10:16:23.679Z,47.47
2018-08-20T10:17:23.675Z,47.76
2018-08-20T10:18:23.757Z,47.56
2018-08-20T10:19:23.708Z,48.61
2018-08-20T10:20:23.447Z,49.19
2018-08-20T10:21:23.707Z,49.58
2018-08-20T10:22:23.707Z,49.49
2018-08-20T10:23:23.466Z,49.49
2018-08-20T10:24:23.717Z,49.39
2018-08-20T10:25:23.720Z,49.49
2018-08-20T10:26:23.491Z,49.49
2018-08-20T10:27:23.727Z,48.8
2018-08-20T10:28:23.734Z,48.61
2018-08-20T10:29:23.743Z,48.32
2018-08-20T10:30:23.767Z,48.03
2018-08-20T10:31:23.494Z,48.51
2018-08-20T10:32:23.523Z,48.05
2018-08-20T10:33:23.506Z,47.56
2018-08-20T10:34:23.829Z,47.56
2018-08-20T10:35:23.573Z,47.39
2018-08-20T10:36:23.784Z,47.49
2018-08-20T10:37:23.780Z,47.59
2018-08-20T10:38:23.800Z,47.49
2018-08-20T10:39:23.566Z,47.3
2018-08-20T10:40:23.642Z,47.39
2018-08-20T10:41:23.820Z,47.2
2018-08-20T10:42:23.822Z,47.3
2018-08-20T10:43:23.553Z,47.2
2018-08-20T10:44:23.571Z,48.36
2018-08-20T10:45:23.824Z,47.39
2018-08-20T10:46:23.831Z,48
2018-08-20T10:47:23.842Z,47.39
2018-08-20T10:48:23.851Z,46.34
2018-08-20T10:49:23.865Z,46.95
2018-08-20T10:50:24.670Z,47.71
2018-08-20T10:51:23.864Z,47.03
2018-08-20T10:52:23.617Z,47.52
2018-08-20T10:53:23.628Z,47.78
2018-08-20T10:54:23.625Z,48.27
2018-08-20T10:55:23.669Z,48.66
2018-08-20T10:56:23.694Z,48.34
2018-08-20T10:57:23.884Z,48.34
2018-08-20T10:58:23.899Z,47.56
2018-08-20T10:59:23.890Z,47.47
2018-08-20T11:00:23.896Z,47.47
2018-08-20T11:01:23.660Z,47.47
2018-08-20T11:02:23.921Z,47.27
2018-08-20T11:03:23.913Z,47.39
2018-08-20T11:04:23.925Z,46.23
2018-08-20T11:05:23.716Z,46.51
2018-08-20T11:06:23.682Z,46.51
2018-08-20T11:07:23.952Z,46.23
2018-08-20T11:08:23.963Z,47.49
2018-08-20T11:09:23.687Z,47
2018-08-20T11:10:24.041Z,46.61
2018-08-20T11:11:23.960Z,46.81
2018-08-20T11:12:23.698Z,46.91
2018-08-20T11:13:23.713Z,47.3
2018-08-20T11:14:23.968Z,47.22
2018-08-20T11:15:23.835Z,47.22
2018-08-20T11:16:24.000Z,45.57
2018-08-20T11:17:23.995Z,45.78
2018-08-20T11:18:24.182Z,45.1
2018-08-20T11:19:23.996Z,46.66
2018-08-20T11:20:24.044Z,46.44
2018-08-20T11:21:24.053Z,47.52
2018-08-20T11:22:24.017Z,46.54
2018-08-20T11:23:24.075Z,46.15
2018-08-20T11:24:24.031Z,46.15
2018-08-20T11:25:23.777Z,45.95
2018-08-20T11:26:24.044Z,46.13
2018-08-20T11:27:24.038Z,46.15
2018-08-20T11:28:23.793Z,46.54
2018-08-20T11:29:24.067Z,45.86
2018-08-20T11:30:24.201Z,45.94
2018-08-20T11:31:24.068Z,45.95
2018-08-20T11:32:23.808Z,46.71
2018-08-20T11:33:24.079Z,46.54
2018-08-20T11:34:23.823Z,45.76
2018-08-20T11:35:24.084Z,46.05
2018-08-20T11:36:24.085Z,45.86
2018-08-20T11:37:24.094Z,45.47
2018-08-20T11:38:23.843Z,45.57
2018-08-20T11:39:24.132Z,45.08
2018-08-20T11:40:24.169Z,45.08
2018-08-20T11:41:23.861Z,45.47
2018-08-20T11:42:23.861Z,45.67
2018-08-20T11:43:24.276Z,45.76
2018-08-20T11:44:24.137Z,45.76
2018-08-20T11:45:23.886Z,44.98
2018-08-20T11:46:23.887Z,43.93
2018-08-20T11:47:23.887Z,44.9
2018-08-20T11:48:24.173Z,45
2018-08-20T11:49:23.900Z,45.59
2018-08-20T11:50:24.157Z,46.08
2018-08-20T11:51:23.906Z,44.81
2018-08-20T11:52:24.168Z,45.71
2018-08-20T11:53:24.190Z,44.15
2018-08-20T11:54:23.937Z,44.73
2018-08-20T11:55:23.929Z,43.49
2018-08-20T11:56:24.203Z,44.24
2018-08-20T11:57:24.206Z,44.54
2018-08-20T11:58:24.203Z,43.95
2018-08-20T11:59:23.953Z,45.22
2018-08-20T12:00:24.309Z,45.42
2018-08-20T12:01:24.214Z,45
2018-08-20T12:02:23.976Z,45.03
2018-08-20T12:03:24.227Z,44.71
2018-08-20T12:04:24.245Z,44.23
2018-08-20T12:05:23.989Z,44.44
2018-08-20T12:06:23.996Z,44.32
2018-08-20T12:07:24.519Z,43.93
2018-08-20T12:08:24.259Z,44.52
2018-08-20T12:09:24.267Z,44.32
2018-08-20T12:10:24.016Z,44.81
2018-08-20T12:11:24.268Z,44.32
2018-08-20T12:12:24.036Z,44.62
2018-08-20T12:13:24.282Z,44.32
2018-08-20T12:14:24.032Z,44.81
2018-08-20T12:15:24.098Z,44.32
2018-08-20T12:16:24.039Z,44.32
2018-08-20T12:17:24.477Z,43.84
2018-08-20T12:18:24.050Z,44.42
2018-08-20T12:19:24.093Z,45.1
2018-08-20T12:20:24.347Z,44.32
2018-08-20T12:21:24.068Z,44.13
2018-08-20T12:22:24.149Z,44.52
2018-08-20T12:23:24.353Z,44.13
2018-08-20T12:24:24.350Z,44.03
2018-08-20T12:25:24.402Z,43.25
2018-08-20T12:26:24.103Z,43.44
2018-08-20T12:27:24.353Z,44.03
2018-08-20T12:28:24.107Z,44.42
2018-08-20T12:29:24.106Z,44.1
2018-08-20T12:30:24.434Z,43.81
2018-08-20T12:31:24.134Z,44.03
2018-08-20T12:32:24.386Z,43.54
2018-08-20T12:33:24.391Z,43.25
2018-08-20T12:34:24.618Z,43.47
2018-08-20T12:35:24.469Z,43.25
2018-08-20T12:36:24.408Z,42.69
2018-08-20T12:37:24.155Z,42.59
2018-08-20T12:38:24.413Z,42.79
2018-08-20T12:39:24.166Z,42.88
2018-08-20T12:40:24.763Z,42.88
2018-08-20T12:41:24.425Z,42.98
2018-08-20T12:42:24.446Z,44.15
2018-08-20T12:43:24.438Z,43.18
2018-08-20T12:44:24.563Z,42.88
2018-08-20T12:45:24.459Z,42.3
2018-08-20T12:46:24.202Z,42.1
2018-08-20T12:47:24.457Z,42.57
2018-08-20T12:48:24.212Z,42.47
2018-08-20T12:49:24.218Z,42.59
2018-08-20T12:50:24.278Z,42.76
2018-08-20T12:51:24.294Z,42.08
2018-08-20T12:52:24.500Z,41.91
2018-08-20T12:53:24.234Z,42.4
2018-08-20T12:54:24.492Z,42.69
2018-08-20T12:55:24.533Z,43.95
2018-08-20T12:56:24.512Z,42